sensor_id;sensor_type;location;lat;lon;timestamp;P1;durP1;ratioP1;P2;durP2;ratioP2
10465;SDS011;5280;42.600;23.556;2023-01-28T00:00:21;8.73;;;7.83;;
10465;SDS011;5280;42.600;23.556;2023-01-28T00:02:58;8.67;;;7.67;;
10465;SDS011;5280;42.600;23.556;2023-01-28T00:05:37;8.17;;;6.93;;
10465;SDS011;5280;42.600;23.556;2023-01-28T00:08:05;8.00;;;7.20;;
10465;SDS011;5280;42.600;23.556;2023-01-28T00:10:43;8.17;;;7.17;;
10465;SDS011;5280;42.600;23.556;2023-01-28T00:13:14;8.50;;;7.17;;
10465;SDS011;5280;42.600;23.556;2023-01-28T00:15:53;8.67;;;7.67;;
10465;SDS011;5280;42.600;23.556;2023-01-28T00:18:34;8.17;;;7.20;;
10465;SDS011;5280;42.600;23.556;2023-01-28T00:21:22;8.50;;;7.10;;
10465;SDS011;5280;42.600;23.556;2023-01-28T00:23:51;8.63;;;7.07;;
10465;SDS011;5280;42.600;23.556;2023-01-28T00:26:19;7.30;;;6.27;;
10465;SDS011;5280;42.600;23.556;2023-01-28T00:29:08;7.73;;;6.60;;
10465;SDS011;5280;42.600;23.556;2023-01-28T00:37:44;9.27;;;7.47;;
10465;SDS011;5280;42.600;23.556;2023-01-28T00:40:15;8.23;;;7.07;;
10465;SDS011;5280;42.600;23.556;2023-01-28T00:42:50;8.57;;;7.13;;
10465;SDS011;5280;42.600;23.556;2023-01-28T00:45:39;9.13;;;6.60;;
10465;SDS011;5280;42.600;23.556;2023-01-28T00:48:10;6.30;;;5.53;;
10465;SDS011;5280;42.600;23.556;2023-01-28T00:50:55;7.50;;;6.20;;
10465;SDS011;5280;42.600;23.556;2023-01-28T00:53:24;7.57;;;6.53;;
10465;SDS011;5280;42.600;23.556;2023-01-28T00:55:54;8.83;;;7.00;;
10465;SDS011;5280;42.600;23.556;2023-01-28T00:58:42;6.80;;;6.10;;
10465;SDS011;5280;42.600;23.556;2023-01-28T01:01:19;6.87;;;6.27;;
10465;SDS011;5280;42.600;23.556;2023-01-28T01:04:02;6.80;;;5.80;;
10465;SDS011;5280;42.600;23.556;2023-01-28T01:06:38;8.43;;;6.90;;
10465;SDS011;5280;42.600;23.556;2023-01-28T01:09:37;8.17;;;6.40;;
10465;SDS011;5280;42.600;23.556;2023-01-28T01:12:06;6.90;;;6.20;;
10465;SDS011;5280;42.600;23.556;2023-01-28T01:17:47;6.17;;;5.57;;
10465;SDS011;5280;42.600;23.556;2023-01-28T01:20:16;6.67;;;6.00;;
10465;SDS011;5280;42.600;23.556;2023-01-28T01:23:16;6.73;;;5.80;;
10465;SDS011;5280;42.600;23.556;2023-01-28T01:25:45;6.93;;;6.13;;
10465;SDS011;5280;42.600;23.556;2023-01-28T01:28:16;6.47;;;5.87;;
10465;SDS011;5280;42.600;23.556;2023-01-28T01:30:57;7.63;;;6.40;;
10465;SDS011;5280;42.600;23.556;2023-01-28T01:33:32;6.43;;;5.80;;
10465;SDS011;5280;42.600;23.556;2023-01-28T01:36:17;7.10;;;6.40;;
10465;SDS011;5280;42.600;23.556;2023-01-28T01:38:47;6.83;;;6.13;;
10465;SDS011;5280;42.600;23.556;2023-01-28T01:41:44;7.23;;;6.40;;
10465;SDS011;5280;42.600;23.556;2023-01-28T01:47:46;6.27;;;5.63;;
10465;SDS011;5280;42.600;23.556;2023-01-28T01:50:52;7.53;;;6.67;;
10465;SDS011;5280;42.600;23.556;2023-01-28T01:53:36;7.17;;;6.47;;
10465;SDS011;5280;42.600;23.556;2023-01-28T01:59:19;6.97;;;6.27;;
10465;SDS011;5280;42.600;23.556;2023-01-28T02:01:56;7.27;;;6.53;;
10465;SDS011;5280;42.600;23.556;2023-01-28T02:04:38;6.77;;;5.90;;
10465;SDS011;5280;42.600;23.556;2023-01-28T02:07:34;7.33;;;6.57;;
10465;SDS011;5280;42.600;23.556;2023-01-28T02:10:17;8.50;;;7.00;;
10465;SDS011;5280;42.600;23.556;2023-01-28T02:13:06;7.53;;;6.63;;
10465;SDS011;5280;42.600;23.556;2023-01-28T02:15:44;7.77;;;6.67;;
10465;SDS011;5280;42.600;23.556;2023-01-28T02:18:23;8.10;;;7.10;;
10465;SDS011;5280;42.600;23.556;2023-01-28T02:21:13;8.80;;;7.03;;
10465;SDS011;5280;42.600;23.556;2023-01-28T02:24:14;7.43;;;6.60;;
10465;SDS011;5280;42.600;23.556;2023-01-28T02:27:08;8.43;;;7.43;;
10465;SDS011;5280;42.600;23.556;2023-01-28T02:30:06;7.67;;;6.80;;
10465;SDS011;5280;42.600;23.556;2023-01-28T02:35:41;7.00;;;6.30;;
10465;SDS011;5280;42.600;23.556;2023-01-28T02:38:34;7.40;;;6.60;;
10465;SDS011;5280;42.600;23.556;2023-01-28T02:41:19;9.17;;;6.33;;
10465;SDS011;5280;42.600;23.556;2023-01-28T02:44:07;7.90;;;6.73;;
10465;SDS011;5280;42.600;23.556;2023-01-28T02:46:44;7.13;;;6.37;;
10465;SDS011;5280;42.600;23.556;2023-01-28T02:49:33;9.17;;;6.63;;
10465;SDS011;5280;42.600;23.556;2023-01-28T02:52:10;7.47;;;5.83;;
10465;SDS011;5280;42.600;23.556;2023-01-28T02:55:16;6.97;;;6.27;;
10465;SDS011;5280;42.600;23.556;2023-01-28T02:58:09;7.37;;;6.60;;
10465;SDS011;5280;42.600;23.556;2023-01-28T03:01:05;7.73;;;6.57;;
10465;SDS011;5280;42.600;23.556;2023-01-28T03:07:11;7.67;;;6.47;;
10465;SDS011;5280;42.600;23.556;2023-01-28T03:09:43;7.10;;;6.40;;
10465;SDS011;5280;42.600;23.556;2023-01-28T03:12:38;7.60;;;6.30;;
10465;SDS011;5280;42.600;23.556;2023-01-28T03:15:34;6.67;;;5.93;;
10465;SDS011;5280;42.600;23.556;2023-01-28T03:18:42;7.00;;;6.30;;
10465;SDS011;5280;42.600;23.556;2023-01-28T03:21:33;6.50;;;5.80;;
10465;SDS011;5280;42.600;23.556;2023-01-28T03:24:23;7.30;;;6.20;;
10465;SDS011;5280;42.600;23.556;2023-01-28T03:27:21;7.27;;;6.43;;
10465;SDS011;5280;42.600;23.556;2023-01-28T03:30:16;7.40;;;6.10;;
10465;SDS011;5280;42.600;23.556;2023-01-28T03:33:05;6.97;;;6.27;;
10465;SDS011;5280;42.600;23.556;2023-01-28T03:35:50;7.00;;;5.87;;
10465;SDS011;5280;42.600;23.556;2023-01-28T03:38:35;6.20;;;5.60;;
10465;SDS011;5280;42.600;23.556;2023-01-28T03:41:22;6.83;;;6.13;;
10465;SDS011;5280;42.600;23.556;2023-01-28T03:43:55;6.70;;;6.00;;
10465;SDS011;5280;42.600;23.556;2023-01-28T03:46:37;6.13;;;5.50;;
10465;SDS011;5280;42.600;23.556;2023-01-28T03:49:06;9.47;;;6.27;;
10465;SDS011;5280;42.600;23.556;2023-01-28T03:51:47;6.30;;;5.70;;
10465;SDS011;5280;42.600;23.556;2023-01-28T03:54:16;6.53;;;5.83;;
10465;SDS011;5280;42.600;23.556;2023-01-28T03:59:37;6.17;;;5.40;;
10465;SDS011;5280;42.600;23.556;2023-01-28T04:02:24;7.17;;;6.13;;
10465;SDS011;5280;42.600;23.556;2023-01-28T04:04:56;7.13;;;5.87;;
10465;SDS011;5280;42.600;23.556;2023-01-28T04:07:26;7.07;;;6.33;;
10465;SDS011;5280;42.600;23.556;2023-01-28T04:10:07;7.93;;;6.33;;
10465;SDS011;5280;42.600;23.556;2023-01-28T04:19:38;6.80;;;6.07;;
10465;SDS011;5280;42.600;23.556;2023-01-28T04:22:39;6.87;;;6.17;;
10465;SDS011;5280;42.600;23.556;2023-01-28T04:25:36;7.43;;;6.47;;
10465;SDS011;5280;42.600;23.556;2023-01-28T04:28:19;9.87;;;7.30;;
10465;SDS011;5280;42.600;23.556;2023-01-28T04:30:58;6.50;;;5.67;;
10465;SDS011;5280;42.600;23.556;2023-01-28T04:33:52;8.13;;;6.70;;
10465;SDS011;5280;42.600;23.556;2023-01-28T04:36:22;6.90;;;6.20;;
10465;SDS011;5280;42.600;23.556;2023-01-28T04:38:52;7.40;;;6.20;;
10465;SDS011;5280;42.600;23.556;2023-01-28T04:41:30;7.00;;;5.83;;
10465;SDS011;5280;42.600;23.556;2023-01-28T04:43:59;6.20;;;5.60;;
10465;SDS011;5280;42.600;23.556;2023-01-28T04:47:19;6.50;;;5.53;;
10465;SDS011;5280;42.600;23.556;2023-01-28T04:53:02;6.47;;;5.77;;
10465;SDS011;5280;42.600;23.556;2023-01-28T04:55:34;6.90;;;6.20;;
10465;SDS011;5280;42.600;23.556;2023-01-28T04:58:28;7.53;;;6.70;;
10465;SDS011;5280;42.600;23.556;2023-01-28T05:01:09;6.43;;;5.73;;
10465;SDS011;5280;42.600;23.556;2023-01-28T05:03:50;9.30;;;6.47;;
10465;SDS011;5280;42.600;23.556;2023-01-28T05:06:36;8.20;;;6.30;;
10465;SDS011;5280;42.600;23.556;2023-01-28T05:12:01;8.00;;;6.80;;
10465;SDS011;5280;42.600;23.556;2023-01-28T05:14:52;7.43;;;6.60;;
10465;SDS011;5280;42.600;23.556;2023-01-28T05:17:30;7.20;;;5.73;;
10465;SDS011;5280;42.600;23.556;2023-01-28T05:20:07;8.67;;;5.93;;
10465;SDS011;5280;42.600;23.556;2023-01-28T05:22:45;6.40;;;5.80;;
10465;SDS011;5280;42.600;23.556;2023-01-28T05:28:35;6.97;;;5.80;;
10465;SDS011;5280;42.600;23.556;2023-01-28T05:31:08;7.27;;;6.10;;
10465;SDS011;5280;42.600;23.556;2023-01-28T05:33:44;6.33;;;5.73;;
10465;SDS011;5280;42.600;23.556;2023-01-28T05:36:54;6.53;;;5.83;;
10465;SDS011;5280;42.600;23.556;2023-01-28T05:39:19;7.00;;;5.90;;
10465;SDS011;5280;42.600;23.556;2023-01-28T05:42:00;5.80;;;5.30;;
10465;SDS011;5280;42.600;23.556;2023-01-28T05:44:33;6.57;;;5.90;;
10465;SDS011;5280;42.600;23.556;2023-01-28T05:47:25;6.80;;;6.10;;
10465;SDS011;5280;42.600;23.556;2023-01-28T05:50:07;7.93;;;6.40;;
10465;SDS011;5280;42.600;23.556;2023-01-28T05:53:00;6.73;;;5.87;;
10465;SDS011;5280;42.600;23.556;2023-01-28T05:55:30;7.13;;;5.93;;
10465;SDS011;5280;42.600;23.556;2023-01-28T05:58:08;7.00;;;6.30;;
10465;SDS011;5280;42.600;23.556;2023-01-28T06:01:11;7.00;;;6.03;;
10465;SDS011;5280;42.600;23.556;2023-01-28T06:03:42;7.27;;;6.00;;
10465;SDS011;5280;42.600;23.556;2023-01-28T06:06:43;6.80;;;6.10;;
10465;SDS011;5280;42.600;23.556;2023-01-28T06:09:16;7.17;;;5.50;;
10465;SDS011;5280;42.600;23.556;2023-01-28T06:11:44;7.70;;;6.17;;
10465;SDS011;5280;42.600;23.556;2023-01-28T06:14:19;7.57;;;6.50;;
10465;SDS011;5280;42.600;23.556;2023-01-28T06:16:46;6.60;;;5.80;;
10465;SDS011;5280;42.600;23.556;2023-01-28T06:19:17;7.20;;;6.10;;
10465;SDS011;5280;42.600;23.556;2023-01-28T06:21:45;7.00;;;6.07;;
10465;SDS011;5280;42.600;23.556;2023-01-28T06:24:14;6.47;;;5.83;;
10465;SDS011;5280;42.600;23.556;2023-01-28T06:26:45;7.60;;;6.43;;
10465;SDS011;5280;42.600;23.556;2023-01-28T06:29:12;6.50;;;5.87;;
10465;SDS011;5280;42.600;23.556;2023-01-28T06:31:49;6.73;;;6.03;;
10465;SDS011;5280;42.600;23.556;2023-01-28T06:34:17;6.87;;;6.03;;
10465;SDS011;5280;42.600;23.556;2023-01-28T06:36:44;6.87;;;6.10;;
10465;SDS011;5280;42.600;23.556;2023-01-28T06:39:11;6.83;;;6.03;;
10465;SDS011;5280;42.600;23.556;2023-01-28T06:41:38;7.40;;;6.20;;
10465;SDS011;5280;42.600;23.556;2023-01-28T06:44:05;8.70;;;6.47;;
10465;SDS011;5280;42.600;23.556;2023-01-28T06:46:32;6.63;;;5.93;;
10465;SDS011;5280;42.600;23.556;2023-01-28T06:49:00;7.83;;;6.23;;
10465;SDS011;5280;42.600;23.556;2023-01-28T06:51:27;6.37;;;5.50;;
10465;SDS011;5280;42.600;23.556;2023-01-28T06:53:55;7.20;;;6.37;;
10465;SDS011;5280;42.600;23.556;2023-01-28T06:56:24;6.90;;;6.00;;
10465;SDS011;5280;42.600;23.556;2023-01-28T06:58:53;7.10;;;6.20;;
10465;SDS011;5280;42.600;23.556;2023-01-28T07:01:19;7.40;;;6.23;;
10465;SDS011;5280;42.600;23.556;2023-01-28T07:03:47;6.97;;;5.77;;
10465;SDS011;5280;42.600;23.556;2023-01-28T07:06:15;7.40;;;6.67;;
10465;SDS011;5280;42.600;23.556;2023-01-28T07:08:44;7.43;;;6.53;;
10465;SDS011;5280;42.600;23.556;2023-01-28T07:11:11;7.57;;;6.60;;
10465;SDS011;5280;42.600;23.556;2023-01-28T07:13:38;7.63;;;6.53;;
10465;SDS011;5280;42.600;23.556;2023-01-28T07:16:08;7.03;;;6.10;;
10465;SDS011;5280;42.600;23.556;2023-01-28T07:18:45;7.30;;;5.87;;
10465;SDS011;5280;42.600;23.556;2023-01-28T07:21:12;7.90;;;6.60;;
10465;SDS011;5280;42.600;23.556;2023-01-28T07:23:44;7.27;;;6.37;;
10465;SDS011;5280;42.600;23.556;2023-01-28T07:26:10;9.10;;;6.23;;
10465;SDS011;5280;42.600;23.556;2023-01-28T07:28:39;7.73;;;6.40;;
10465;SDS011;5280;42.600;23.556;2023-01-28T07:31:09;8.40;;;6.73;;
10465;SDS011;5280;42.600;23.556;2023-01-28T07:33:42;10.50;;;6.70;;
10465;SDS011;5280;42.600;23.556;2023-01-28T07:36:11;7.87;;;6.17;;
10465;SDS011;5280;42.600;23.556;2023-01-28T07:38:39;8.20;;;6.23;;
10465;SDS011;5280;42.600;23.556;2023-01-28T07:41:06;7.60;;;6.80;;
10465;SDS011;5280;42.600;23.556;2023-01-28T07:43:35;8.00;;;6.63;;
10465;SDS011;5280;42.600;23.556;2023-01-28T07:46:02;9.20;;;7.03;;
10465;SDS011;5280;42.600;23.556;2023-01-28T07:48:29;8.40;;;7.20;;
10465;SDS011;5280;42.600;23.556;2023-01-28T07:50:57;9.50;;;7.23;;
10465;SDS011;5280;42.600;23.556;2023-01-28T07:53:25;11.07;;;7.70;;
10465;SDS011;5280;42.600;23.556;2023-01-28T07:55:58;11.33;;;8.43;;
10465;SDS011;5280;42.600;23.556;2023-01-28T07:58:26;11.43;;;7.93;;
10465;SDS011;5280;42.600;23.556;2023-01-28T08:00:55;10.30;;;8.30;;
10465;SDS011;5280;42.600;23.556;2023-01-28T08:03:23;10.40;;;8.00;;
10465;SDS011;5280;42.600;23.556;2023-01-28T08:05:52;10.27;;;8.20;;
10465;SDS011;5280;42.600;23.556;2023-01-28T08:08:20;9.87;;;8.03;;
10465;SDS011;5280;42.600;23.556;2023-01-28T08:10:47;9.37;;;7.57;;
10465;SDS011;5280;42.600;23.556;2023-01-28T08:13:18;8.40;;;6.77;;
10465;SDS011;5280;42.600;23.556;2023-01-28T08:15:48;9.17;;;7.57;;
10465;SDS011;5280;42.600;23.556;2023-01-28T08:18:15;8.53;;;7.20;;
10465;SDS011;5280;42.600;23.556;2023-01-28T08:20:42;9.40;;;7.63;;
10465;SDS011;5280;42.600;23.556;2023-01-28T08:23:11;9.63;;;8.07;;
10465;SDS011;5280;42.600;23.556;2023-01-28T08:25:39;9.77;;;7.80;;
10465;SDS011;5280;42.600;23.556;2023-01-28T08:28:07;8.63;;;7.13;;
10465;SDS011;5280;42.600;23.556;2023-01-28T08:30:38;9.93;;;7.67;;
10465;SDS011;5280;42.600;23.556;2023-01-28T08:33:06;10.17;;;8.30;;
10465;SDS011;5280;42.600;23.556;2023-01-28T08:35:37;9.40;;;8.33;;
10465;SDS011;5280;42.600;23.556;2023-01-28T08:38:09;8.73;;;7.13;;
10465;SDS011;5280;42.600;23.556;2023-01-28T08:40:52;9.60;;;7.90;;
10465;SDS011;5280;42.600;23.556;2023-01-28T08:43:27;9.80;;;8.00;;
10465;SDS011;5280;42.600;23.556;2023-01-28T08:45:57;9.17;;;7.53;;
10465;SDS011;5280;42.600;23.556;2023-01-28T08:48:24;12.73;;;8.33;;
10465;SDS011;5280;42.600;23.556;2023-01-28T08:50:55;8.73;;;7.30;;
10465;SDS011;5280;42.600;23.556;2023-01-28T08:53:24;9.23;;;7.80;;
10465;SDS011;5280;42.600;23.556;2023-01-28T08:55:52;9.13;;;7.83;;
10465;SDS011;5280;42.600;23.556;2023-01-28T08:58:19;11.03;;;8.10;;
10465;SDS011;5280;42.600;23.556;2023-01-28T09:00:46;10.77;;;8.43;;
10465;SDS011;5280;42.600;23.556;2023-01-28T09:03:15;12.20;;;8.60;;
10465;SDS011;5280;42.600;23.556;2023-01-28T09:05:42;10.40;;;8.33;;
10465;SDS011;5280;42.600;23.556;2023-01-28T09:08:11;9.10;;;7.60;;
10465;SDS011;5280;42.600;23.556;2023-01-28T09:10:40;9.80;;;7.60;;
10465;SDS011;5280;42.600;23.556;2023-01-28T09:13:09;10.03;;;8.27;;
10465;SDS011;5280;42.600;23.556;2023-01-28T09:15:37;9.90;;;7.87;;
10465;SDS011;5280;42.600;23.556;2023-01-28T09:18:04;9.33;;;7.57;;
10465;SDS011;5280;42.600;23.556;2023-01-28T09:20:33;9.73;;;7.33;;
10465;SDS011;5280;42.600;23.556;2023-01-28T09:23:00;8.93;;;7.70;;
10465;SDS011;5280;42.600;23.556;2023-01-28T09:25:36;8.93;;;7.17;;
10465;SDS011;5280;42.600;23.556;2023-01-28T09:28:13;9.83;;;7.13;;
10465;SDS011;5280;42.600;23.556;2023-01-28T09:30:40;11.17;;;7.57;;
10465;SDS011;5280;42.600;23.556;2023-01-28T09:33:07;8.00;;;6.97;;
10465;SDS011;5280;42.600;23.556;2023-01-28T09:35:36;8.50;;;7.20;;
10465;SDS011;5280;42.600;23.556;2023-01-28T09:38:05;9.13;;;7.27;;
10465;SDS011;5280;42.600;23.556;2023-01-28T09:40:33;10.83;;;7.20;;
10465;SDS011;5280;42.600;23.556;2023-01-28T09:43:09;9.47;;;8.10;;
10465;SDS011;5280;42.600;23.556;2023-01-28T09:46:05;8.30;;;7.20;;
10465;SDS011;5280;42.600;23.556;2023-01-28T09:48:37;9.50;;;7.67;;
10465;SDS011;5280;42.600;23.556;2023-01-28T09:51:09;9.47;;;7.70;;
10465;SDS011;5280;42.600;23.556;2023-01-28T09:53:44;9.67;;;7.90;;
10465;SDS011;5280;42.600;23.556;2023-01-28T09:56:18;8.30;;;7.17;;
10465;SDS011;5280;42.600;23.556;2023-01-28T09:58:50;8.60;;;7.70;;
10465;SDS011;5280;42.600;23.556;2023-01-28T10:01:23;9.47;;;8.40;;
10465;SDS011;5280;42.600;23.556;2023-01-28T10:04:02;9.70;;;8.20;;
10465;SDS011;5280;42.600;23.556;2023-01-28T10:06:54;11.37;;;7.93;;
10465;SDS011;5280;42.600;23.556;2023-01-28T10:09:34;10.67;;;8.33;;
10465;SDS011;5280;42.600;23.556;2023-01-28T10:12:23;9.37;;;7.63;;
10465;SDS011;5280;42.600;23.556;2023-01-28T10:15:10;9.23;;;7.83;;
10465;SDS011;5280;42.600;23.556;2023-01-28T10:17:51;10.03;;;8.10;;
10465;SDS011;5280;42.600;23.556;2023-01-28T10:20:23;9.87;;;8.13;;
10465;SDS011;5280;42.600;23.556;2023-01-28T10:22:57;9.00;;;7.63;;
10465;SDS011;5280;42.600;23.556;2023-01-28T10:25:30;9.23;;;7.87;;
10465;SDS011;5280;42.600;23.556;2023-01-28T10:27:59;9.17;;;7.73;;
10465;SDS011;5280;42.600;23.556;2023-01-28T10:30:29;10.77;;;8.97;;
10465;SDS011;5280;42.600;23.556;2023-01-28T10:33:00;10.73;;;9.00;;
10465;SDS011;5280;42.600;23.556;2023-01-28T10:35:38;10.80;;;8.57;;
10465;SDS011;5280;42.600;23.556;2023-01-28T10:38:08;11.23;;;9.33;;
10465;SDS011;5280;42.600;23.556;2023-01-28T10:40:40;11.10;;;9.37;;
10465;SDS011;5280;42.600;23.556;2023-01-28T10:43:08;11.23;;;8.60;;
10465;SDS011;5280;42.600;23.556;2023-01-28T10:45:36;11.07;;;9.33;;
10465;SDS011;5280;42.600;23.556;2023-01-28T10:48:07;10.67;;;9.13;;
10465;SDS011;5280;42.600;23.556;2023-01-28T10:50:48;10.83;;;8.17;;
10465;SDS011;5280;42.600;23.556;2023-01-28T10:53:32;11.03;;;9.07;;
10465;SDS011;5280;42.600;23.556;2023-01-28T10:56:02;10.53;;;8.73;;
10465;SDS011;5280;42.600;23.556;2023-01-28T10:58:49;12.00;;;9.33;;
10465;SDS011;5280;42.600;23.556;2023-01-28T11:01:25;11.50;;;8.57;;
10465;SDS011;5280;42.600;23.556;2023-01-28T11:04:05;11.37;;;8.53;;
10465;SDS011;5280;42.600;23.556;2023-01-28T11:06:55;12.10;;;8.67;;
10465;SDS011;5280;42.600;23.556;2023-01-28T11:09:27;10.17;;;8.23;;
10465;SDS011;5280;42.600;23.556;2023-01-28T11:12:32;10.80;;;8.80;;
10465;SDS011;5280;42.600;23.556;2023-01-28T11:15:05;11.77;;;9.00;;
10465;SDS011;5280;42.600;23.556;2023-01-28T11:17:45;10.53;;;8.60;;
10465;SDS011;5280;42.600;23.556;2023-01-28T11:20:26;10.57;;;8.47;;
10465;SDS011;5280;42.600;23.556;2023-01-28T11:23:02;10.40;;;8.07;;
10465;SDS011;5280;42.600;23.556;2023-01-28T11:25:32;11.60;;;9.00;;
10465;SDS011;5280;42.600;23.556;2023-01-28T11:28:16;10.60;;;8.87;;
10465;SDS011;5280;42.600;23.556;2023-01-28T11:30:55;11.30;;;9.13;;
10465;SDS011;5280;42.600;23.556;2023-01-28T11:33:31;12.53;;;9.03;;
10465;SDS011;5280;42.600;23.556;2023-01-28T11:36:06;9.13;;;8.10;;
10465;SDS011;5280;42.600;23.556;2023-01-28T11:38:46;10.57;;;8.63;;
10465;SDS011;5280;42.600;23.556;2023-01-28T11:41:17;11.07;;;9.33;;
10465;SDS011;5280;42.600;23.556;2023-01-28T11:43:49;11.53;;;9.80;;
10465;SDS011;5280;42.600;23.556;2023-01-28T11:46:21;12.27;;;8.87;;
10465;SDS011;5280;42.600;23.556;2023-01-28T11:49:07;11.20;;;9.10;;
10465;SDS011;5280;42.600;23.556;2023-01-28T11:51:43;11.97;;;9.33;;
10465;SDS011;5280;42.600;23.556;2023-01-28T11:54:22;12.87;;;10.77;;
10465;SDS011;5280;42.600;23.556;2023-01-28T11:57:13;12.97;;;10.07;;
10465;SDS011;5280;42.600;23.556;2023-01-28T12:00:00;12.37;;;9.73;;
10465;SDS011;5280;42.600;23.556;2023-01-28T12:02:45;10.00;;;8.90;;
10465;SDS011;5280;42.600;23.556;2023-01-28T12:05:28;9.83;;;8.57;;
10465;SDS011;5280;42.600;23.556;2023-01-28T12:08:08;11.33;;;8.60;;
10465;SDS011;5280;42.600;23.556;2023-01-28T12:10:47;9.67;;;8.30;;
10465;SDS011;5280;42.600;23.556;2023-01-28T12:13:34;9.17;;;8.07;;
10465;SDS011;5280;42.600;23.556;2023-01-28T12:16:17;10.33;;;8.47;;
10465;SDS011;5280;42.600;23.556;2023-01-28T12:19:06;9.07;;;7.27;;
10465;SDS011;5280;42.600;23.556;2023-01-28T12:21:44;11.00;;;8.93;;
10465;SDS011;5280;42.600;23.556;2023-01-28T12:24:26;10.67;;;8.63;;
10465;SDS011;5280;42.600;23.556;2023-01-28T12:27:09;9.97;;;8.00;;
10465;SDS011;5280;42.600;23.556;2023-01-28T12:29:53;9.93;;;8.20;;
10465;SDS011;5280;42.600;23.556;2023-01-28T12:32:35;8.63;;;7.13;;
10465;SDS011;5280;42.600;23.556;2023-01-28T12:35:18;9.60;;;8.17;;
10465;SDS011;5280;42.600;23.556;2023-01-28T12:38:03;9.40;;;8.27;;
10465;SDS011;5280;42.600;23.556;2023-01-28T12:46:25;8.37;;;7.30;;
10465;SDS011;5280;42.600;23.556;2023-01-28T12:49:02;9.67;;;7.83;;
10465;SDS011;5280;42.600;23.556;2023-01-28T12:51:38;9.37;;;8.07;;
10465;SDS011;5280;42.600;23.556;2023-01-28T12:54:19;8.97;;;7.70;;
10465;SDS011;5280;42.600;23.556;2023-01-28T12:56:51;10.03;;;8.27;;
10465;SDS011;5280;42.600;23.556;2023-01-28T12:59:20;10.10;;;8.47;;
10465;SDS011;5280;42.600;23.556;2023-01-28T13:01:59;9.10;;;7.73;;
10465;SDS011;5280;42.600;23.556;2023-01-28T13:04:44;9.93;;;8.43;;
10465;SDS011;5280;42.600;23.556;2023-01-28T13:07:16;10.47;;;8.53;;
10465;SDS011;5280;42.600;23.556;2023-01-28T13:09:51;9.43;;;8.03;;
10465;SDS011;5280;42.600;23.556;2023-01-28T13:12:24;9.30;;;8.27;;
10465;SDS011;5280;42.600;23.556;2023-01-28T13:14:51;9.37;;;7.80;;
10465;SDS011;5280;42.600;23.556;2023-01-28T13:17:25;10.57;;;8.30;;
10465;SDS011;5280;42.600;23.556;2023-01-28T13:19:54;9.53;;;7.70;;
10465;SDS011;5280;42.600;23.556;2023-01-28T13:22:26;9.37;;;7.63;;
10465;SDS011;5280;42.600;23.556;2023-01-28T13:25:11;18.97;;;11.87;;
10465;SDS011;5280;42.600;23.556;2023-01-28T13:27:53;10.57;;;8.60;;
10465;SDS011;5280;42.600;23.556;2023-01-28T13:30:23;11.80;;;9.13;;
10465;SDS011;5280;42.600;23.556;2023-01-28T13:33:05;13.47;;;9.23;;
10465;SDS011;5280;42.600;23.556;2023-01-28T13:35:51;10.03;;;8.40;;
10465;SDS011;5280;42.600;23.556;2023-01-28T13:38:23;9.57;;;7.83;;
10465;SDS011;5280;42.600;23.556;2023-01-28T13:41:02;8.73;;;7.67;;
10465;SDS011;5280;42.600;23.556;2023-01-28T13:43:37;10.37;;;7.63;;
10465;SDS011;5280;42.600;23.556;2023-01-28T13:46:06;9.80;;;8.40;;
10465;SDS011;5280;42.600;23.556;2023-01-28T13:48:40;9.63;;;7.90;;
10465;SDS011;5280;42.600;23.556;2023-01-28T13:51:21;9.00;;;7.63;;
10465;SDS011;5280;42.600;23.556;2023-01-28T13:53:55;10.43;;;8.17;;
10465;SDS011;5280;42.600;23.556;2023-01-28T13:56:35;10.23;;;8.77;;
10465;SDS011;5280;42.600;23.556;2023-01-28T13:59:30;10.17;;;7.70;;
10465;SDS011;5280;42.600;23.556;2023-01-28T14:02:24;10.83;;;7.63;;
10465;SDS011;5280;42.600;23.556;2023-01-28T14:08:22;11.03;;;8.87;;
10465;SDS011;5280;42.600;23.556;2023-01-28T14:11:08;10.47;;;8.17;;
10465;SDS011;5280;42.600;23.556;2023-01-28T14:14:01;10.80;;;8.07;;
10465;SDS011;5280;42.600;23.556;2023-01-28T14:16:51;12.57;;;9.10;;
10465;SDS011;5280;42.600;23.556;2023-01-28T14:19:25;10.13;;;8.70;;
10465;SDS011;5280;42.600;23.556;2023-01-28T14:21:56;10.17;;;8.50;;
10465;SDS011;5280;42.600;23.556;2023-01-28T14:24:26;10.87;;;8.10;;
10465;SDS011;5280;42.600;23.556;2023-01-28T14:26:56;8.50;;;7.47;;
10465;SDS011;5280;42.600;23.556;2023-01-28T14:29:42;9.63;;;8.03;;
10465;SDS011;5280;42.600;23.556;2023-01-28T14:32:15;10.07;;;8.57;;
10465;SDS011;5280;42.600;23.556;2023-01-28T14:34:44;8.50;;;7.37;;
10465;SDS011;5280;42.600;23.556;2023-01-28T14:37:14;11.27;;;8.83;;
10465;SDS011;5280;42.600;23.556;2023-01-28T14:39:46;9.60;;;8.07;;
10465;SDS011;5280;42.600;23.556;2023-01-28T14:42:18;9.13;;;8.00;;
10465;SDS011;5280;42.600;23.556;2023-01-28T14:44:50;9.10;;;7.63;;
10465;SDS011;5280;42.600;23.556;2023-01-28T14:47:32;9.70;;;7.80;;
10465;SDS011;5280;42.600;23.556;2023-01-28T14:50:21;9.27;;;7.47;;
10465;SDS011;5280;42.600;23.556;2023-01-28T14:53:05;10.17;;;7.83;;
10465;SDS011;5280;42.600;23.556;2023-01-28T14:55:50;9.27;;;7.70;;
10465;SDS011;5280;42.600;23.556;2023-01-28T14:58:23;8.63;;;7.17;;
10465;SDS011;5280;42.600;23.556;2023-01-28T15:00:53;9.27;;;7.50;;
10465;SDS011;5280;42.600;23.556;2023-01-28T15:03:34;8.73;;;6.93;;
10465;SDS011;5280;42.600;23.556;2023-01-28T15:06:11;9.57;;;8.20;;
10465;SDS011;5280;42.600;23.556;2023-01-28T15:08:50;9.30;;;7.60;;
10465;SDS011;5280;42.600;23.556;2023-01-28T15:11:28;8.63;;;7.77;;
10465;SDS011;5280;42.600;23.556;2023-01-28T15:13:56;10.30;;;7.67;;
10465;SDS011;5280;42.600;23.556;2023-01-28T15:16:27;9.17;;;7.50;;
10465;SDS011;5280;42.600;23.556;2023-01-28T15:18:55;10.27;;;8.87;;
10465;SDS011;5280;42.600;23.556;2023-01-28T15:21:25;8.93;;;7.60;;
10465;SDS011;5280;42.600;23.556;2023-01-28T15:23:54;9.60;;;7.77;;
10465;SDS011;5280;42.600;23.556;2023-01-28T15:26:25;9.27;;;7.87;;
10465;SDS011;5280;42.600;23.556;2023-01-28T15:28:57;10.37;;;8.00;;
10465;SDS011;5280;42.600;23.556;2023-01-28T15:31:30;9.87;;;8.27;;
10465;SDS011;5280;42.600;23.556;2023-01-28T15:34:08;8.47;;;7.30;;
10465;SDS011;5280;42.600;23.556;2023-01-28T15:36:38;10.43;;;7.97;;
10465;SDS011;5280;42.600;23.556;2023-01-28T15:39:14;12.03;;;8.50;;
10465;SDS011;5280;42.600;23.556;2023-01-28T15:41:47;12.40;;;8.87;;
10465;SDS011;5280;42.600;23.556;2023-01-28T15:44:26;11.97;;;8.83;;
10465;SDS011;5280;42.600;23.556;2023-01-28T15:46:56;12.20;;;9.57;;
10465;SDS011;5280;42.600;23.556;2023-01-28T15:49:25;11.43;;;8.53;;
10465;SDS011;5280;42.600;23.556;2023-01-28T15:51:56;10.40;;;7.97;;
10465;SDS011;5280;42.600;23.556;2023-01-28T15:54:24;9.90;;;7.57;;
10465;SDS011;5280;42.600;23.556;2023-01-28T15:56:56;8.40;;;6.83;;
10465;SDS011;5280;42.600;23.556;2023-01-28T15:59:34;10.30;;;8.03;;
10465;SDS011;5280;42.600;23.556;2023-01-28T16:02:14;10.20;;;7.97;;
10465;SDS011;5280;42.600;23.556;2023-01-28T16:04:56;9.57;;;7.13;;
10465;SDS011;5280;42.600;23.556;2023-01-28T16:07:24;9.47;;;6.40;;
10465;SDS011;5280;42.600;23.556;2023-01-28T16:09:55;7.87;;;6.57;;
10465;SDS011;5280;42.600;23.556;2023-01-28T16:12:28;7.63;;;6.20;;
10465;SDS011;5280;42.600;23.556;2023-01-28T16:14:56;7.60;;;6.80;;
10465;SDS011;5280;42.600;23.556;2023-01-28T16:17:26;8.57;;;6.77;;
10465;SDS011;5280;42.600;23.556;2023-01-28T16:19:56;9.30;;;7.20;;
10465;SDS011;5280;42.600;23.556;2023-01-28T16:22:27;11.50;;;8.63;;
10465;SDS011;5280;42.600;23.556;2023-01-28T16:25:01;9.57;;;7.90;;
10465;SDS011;5280;42.600;23.556;2023-01-28T16:27:31;8.10;;;6.73;;
10465;SDS011;5280;42.600;23.556;2023-01-28T16:30:07;5.90;;;5.30;;